createdAt,value
2019-04-23T00:00:05.584Z,25.60
2019-04-23T00:02:44.404Z,25.60
2019-04-23T00:05:22.924Z,25.60
2019-04-23T00:08:07.380Z,25.60
2019-04-23T00:10:19.561Z,25.60
2019-04-23T00:12:47.828Z,25.70
2019-04-23T00:15:16.776Z,25.60
2019-04-23T00:18:12.463Z,25.70
2019-04-23T00:20:25.707Z,25.60
2019-04-23T00:23:07.296Z,25.70
2019-04-23T00:26:10.565Z,25.70
2019-04-23T00:28:33.473Z,25.60
2019-04-23T00:33:30.268Z,25.70
2019-04-23T00:36:05.263Z,25.70
2019-04-23T00:43:54.710Z,25.50
2019-04-23T00:46:06.489Z,25.70
2019-04-23T00:51:09.945Z,25.70
2019-04-23T00:53:43.808Z,25.70
2019-04-23T00:56:32.110Z,25.60
2019-04-23T00:58:51.078Z,25.70
2019-04-23T01:01:24.113Z,25.70
2019-04-23T01:03:53.035Z,25.70
2019-04-23T01:06:24.307Z,25.70
2019-04-23T01:08:55.130Z,25.70
2019-04-23T01:11:27.948Z,25.70
2019-04-23T01:14:01.104Z,25.70
2019-04-23T01:16:29.902Z,25.80
2019-04-23T01:19:22.458Z,25.70
2019-04-23T01:21:30.525Z,25.70
2019-04-23T01:24:30.777Z,25.80
2019-04-23T01:32:36.941Z,25.70
2019-04-23T01:35:17.631Z,25.70
2019-04-23T01:37:52.356Z,25.70
2019-04-23T01:40:18.758Z,25.70
2019-04-23T01:52:55.111Z,25.70
2019-04-23T02:00:29.929Z,25.70
2019-04-23T02:03:02.211Z,25.80
2019-04-23T02:05:32.921Z,25.70
2019-04-23T02:08:05.244Z,25.70
2019-04-23T02:10:39.576Z,25.70
2019-04-23T02:13:12.510Z,25.70
2019-04-23T02:15:37.967Z,25.80
2019-04-23T02:18:13.374Z,25.80
2019-04-23T02:20:43.030Z,25.80
2019-04-23T02:26:01.287Z,25.80
2019-04-23T02:28:25.727Z,25.80
2019-04-23T02:41:12.903Z,25.80
2019-04-23T02:43:44.273Z,25.80
2019-04-23T02:48:54.601Z,25.80
2019-04-23T02:51:23.612Z,25.80
2019-04-23T02:56:34.736Z,25.90
2019-04-23T02:59:05.639Z,25.80
2019-04-23T03:01:31.237Z,25.80
2019-04-23T03:03:59.625Z,25.80
2019-04-23T03:06:29.963Z,25.80
2019-04-23T03:08:50.055Z,25.80
2019-04-23T03:16:57.882Z,25.90
2019-04-23T03:19:38.187Z,25.90
2019-04-23T03:22:42.012Z,25.80
2019-04-23T03:27:49.998Z,25.80
2019-04-23T03:32:37.452Z,25.80
2019-04-23T03:34:10.992Z,25.90
2019-04-23T03:41:04.050Z,25.90
2019-04-23T03:46:12.360Z,25.90
2019-04-23T03:48:34.092Z,25.90
2019-04-23T03:50:53.299Z,25.90
2019-04-23T03:53:45.437Z,25.90
2019-04-23T03:58:36.759Z,26.10
2019-04-23T04:01:11.892Z,25.90
2019-04-23T04:11:18.125Z,25.90
2019-04-23T04:13:55.327Z,25.90
2019-04-23T04:24:05.147Z,26.00
2019-04-23T04:31:30.893Z,26.00
2019-04-23T04:37:11.836Z,26.00
2019-04-23T04:39:19.709Z,26.00
2019-04-23T04:41:31.148Z,26.40
2019-04-23T04:46:43.860Z,26.00
2019-04-23T04:51:49.795Z,25.90
2019-04-23T04:56:42.561Z,26.00
2019-04-23T05:01:51.662Z,26.00
2019-04-23T05:04:28.533Z,26.00
2019-04-23T05:07:06.236Z,26.00
2019-04-23T05:14:33.399Z,26.00
2019-04-23T05:16:56.618Z,26.00
2019-04-23T05:19:35.515Z,26.00
2019-04-23T05:22:06.563Z,26.00
2019-04-23T05:27:02.951Z,26.00
2019-04-23T05:29:57.364Z,26.00
2019-04-23T05:32:10.030Z,26.00
2019-04-23T05:37:14.804Z,26.00
2019-04-23T05:39:42.767Z,26.00
2019-04-23T05:42:11.210Z,26.00
2019-04-23T05:47:24.296Z,26.00
2019-04-23T05:52:24.450Z,26.00
2019-04-23T05:54:57.565Z,26.00
2019-04-23T05:57:20.520Z,26.00
2019-04-23T05:59:54.827Z,25.90
2019-04-23T06:02:26.570Z,26.00
2019-04-23T06:04:57.158Z,26.00
2019-04-23T06:12:31.378Z,26.00
2019-04-23T06:15:05.136Z,26.00
2019-04-23T06:17:30.914Z,26.00
2019-04-23T06:20:10.154Z,26.00
2019-04-23T06:23:02.009Z,25.90
2019-04-23T06:25:30.765Z,25.90
2019-04-23T06:28:08.126Z,26.00
2019-04-23T06:30:53.030Z,25.90
2019-04-23T06:33:14.548Z,25.90
2019-04-23T06:35:46.988Z,25.80
2019-04-23T06:38:32.572Z,25.90
2019-04-23T06:40:51.943Z,25.90
2019-04-23T06:43:30.301Z,25.80
2019-04-23T06:45:52.337Z,25.80
2019-04-23T06:51:05.958Z,25.80
2019-04-23T06:53:24.499Z,25.80
2019-04-23T06:56:03.833Z,25.80
2019-04-23T06:58:32.364Z,25.80
2019-04-23T07:03:41.583Z,25.80
2019-04-23T07:06:27.013Z,25.80
2019-04-23T07:11:28.742Z,25.80
2019-04-23T07:16:34.887Z,27.10
2019-04-23T07:19:14.949Z,28.00
2019-04-23T07:21:22.433Z,28.40
2019-04-23T07:23:58.955Z,28.40
2019-04-23T07:29:15.634Z,28.20
2019-04-23T07:31:48.314Z,28.40
2019-04-23T07:36:41.056Z,27.90
2019-04-23T07:42:03.430Z,27.80
2019-04-23T07:44:56.682Z,27.80
2019-04-23T07:47:53.491Z,27.70
2019-04-23T07:53:01.915Z,27.60
2019-04-23T07:55:25.803Z,27.50
2019-04-23T07:57:58.270Z,27.60
2019-04-23T08:00:36.626Z,27.60
2019-04-23T08:03:06.476Z,27.60
2019-04-23T08:08:03.472Z,27.50
2019-04-23T08:10:42.171Z,27.50
2019-04-23T08:13:07.981Z,27.50
2019-04-23T08:15:42.548Z,27.50
2019-04-23T08:18:13.485Z,27.50
2019-04-23T08:21:05.552Z,27.50
2019-04-23T08:23:25.714Z,27.60
2019-04-23T08:26:19.536Z,27.60
2019-04-23T08:31:25.099Z,27.60
2019-04-23T08:33:56.979Z,27.60
2019-04-23T08:36:29.538Z,27.60
2019-04-23T08:38:50.789Z,27.60
2019-04-23T08:43:57.196Z,27.50
2019-04-23T08:47:13.281Z,27.60
2019-04-23T08:49:39.147Z,27.50
2019-04-23T08:59:50.243Z,27.50
2019-04-23T09:02:25.671Z,27.50
2019-04-23T09:04:51.579Z,27.40
2019-04-23T09:07:16.794Z,27.40
2019-04-23T09:09:50.807Z,27.30
2019-04-23T09:14:53.971Z,27.40
2019-04-23T09:20:11.806Z,27.30
2019-04-23T09:24:55.554Z,27.20
2019-04-23T09:27:26.203Z,27.10
2019-04-23T09:30:00.984Z,27.10
2019-04-23T09:32:36.464Z,27.10
2019-04-23T09:35:20.684Z,27.00
2019-04-23T09:43:50.170Z,27.10
2019-04-23T09:51:38.234Z,27.00
2019-04-23T09:54:22.144Z,27.00
2019-04-23T09:56:42.319Z,27.00
2019-04-23T09:59:34.302Z,27.10
2019-04-23T10:01:49.776Z,27.00
2019-04-23T10:04:00.053Z,27.00
2019-04-23T10:06:26.568Z,27.00
2019-04-23T10:08:57.849Z,27.00
2019-04-23T10:11:26.205Z,27.00
2019-04-23T10:13:56.658Z,27.00
2019-04-23T10:16:30.212Z,26.90
2019-04-23T10:18:59.371Z,26.90
2019-04-23T10:21:31.200Z,27.10
2019-04-23T10:24:01.872Z,27.10
2019-04-23T10:26:34.348Z,27.20
2019-04-23T10:29:27.730Z,27.30
2019-04-23T10:31:59.598Z,27.30
2019-04-23T10:34:42.329Z,27.30
2019-04-23T10:37:02.324Z,27.40
2019-04-23T10:39:37.846Z,27.50
2019-04-23T10:42:05.957Z,27.50
2019-04-23T10:45:13.123Z,27.50
2019-04-23T10:48:40.266Z,27.40
2019-04-23T10:51:25.040Z,27.50
2019-04-23T10:56:10.967Z,27.50
2019-04-23T11:01:14.784Z,27.40
2019-04-23T11:06:28.817Z,27.50
2019-04-23T11:08:42.467Z,27.70
2019-04-23T11:11:22.877Z,27.60
2019-04-23T11:13:54.878Z,27.50
2019-04-23T11:16:45.696Z,27.50
2019-04-23T11:21:34.310Z,27.60
2019-04-23T11:24:04.520Z,27.80
2019-04-23T11:29:03.408Z,27.60
2019-04-23T11:34:15.169Z,27.60
2019-04-23T11:39:05.055Z,27.60
2019-04-23T11:41:51.433Z,27.70
2019-04-23T11:44:18.819Z,27.70
2019-04-23T11:49:34.873Z,27.80
2019-04-23T11:54:24.220Z,27.80
2019-04-23T11:59:38.924Z,27.70
2019-04-23T12:02:17.062Z,27.70
2019-04-23T12:05:11.774Z,27.80
2019-04-23T12:08:03.827Z,27.70
2019-04-23T12:13:12.264Z,27.70
2019-04-23T12:15:51.729Z,27.70
2019-04-23T12:18:24.146Z,27.70
2019-04-23T12:20:49.070Z,27.70
2019-04-23T12:23:41.241Z,27.70
2019-04-23T12:26:06.635Z,27.60
2019-04-23T12:28:40.829Z,27.60
2019-04-23T12:31:10.043Z,27.50
2019-04-23T12:33:45.255Z,27.50
2019-04-23T12:36:41.027Z,27.50
2019-04-23T12:39:21.186Z,27.50
2019-04-23T12:41:57.127Z,27.40
2019-04-23T12:44:22.468Z,27.40
2019-04-23T12:46:55.381Z,27.20
2019-04-23T12:49:45.875Z,27.30
2019-04-23T12:52:08.361Z,27.30
2019-04-23T12:54:52.209Z,27.30
2019-04-23T12:57:12.389Z,27.30
2019-04-23T12:59:44.660Z,27.40
2019-04-23T13:04:48.439Z,27.40
2019-04-23T13:12:36.286Z,27.50
2019-04-23T13:15:05.273Z,27.50
2019-04-23T13:17:40.579Z,27.40
2019-04-23T13:20:00.676Z,27.40
2019-04-23T13:22:46.106Z,27.30
2019-04-23T13:25:32.552Z,27.30
2019-04-23T13:28:02.939Z,27.30
2019-04-23T13:30:35.547Z,27.30
2019-04-23T13:33:02.782Z,27.30
2019-04-23T13:35:48.232Z,27.30
2019-04-23T13:38:08.602Z,27.30
2019-04-23T13:43:13.967Z,27.20
2019-04-23T13:46:00.004Z,27.20
2019-04-23T13:50:49.898Z,27.00
2019-04-23T13:53:32.033Z,27.00
2019-04-23T13:55:42.613Z,27.00
2019-04-23T14:06:24.473Z,27.00
2019-04-23T14:21:28.672Z,26.90
2019-04-23T14:24:08.367Z,27.00
2019-04-23T14:28:53.293Z,26.90
2019-04-23T14:31:22.024Z,26.90
2019-04-23T14:34:07.942Z,27.00
2019-04-23T14:36:39.566Z,27.10
2019-04-23T14:39:05.619Z,27.00
2019-04-23T14:41:31.072Z,27.00
2019-04-23T14:51:58.903Z,27.10
2019-04-23T14:57:15.860Z,27.10
2019-04-23T14:59:41.255Z,27.10
2019-04-23T15:02:13.789Z,27.50
2019-04-23T15:04:39.369Z,27.10
2019-04-23T15:07:31.383Z,27.10
2019-04-23T15:09:57.661Z,27.10
2019-04-23T15:12:22.577Z,27.00
2019-04-23T15:15:02.690Z,27.10
2019-04-23T15:22:35.150Z,27.10
2019-04-23T15:25:23.471Z,27.10
2019-04-23T15:29:58.103Z,27.10
2019-04-23T15:35:23.553Z,27.10
2019-04-23T15:38:16.257Z,27.20
2019-04-23T15:40:23.651Z,27.10
2019-04-23T15:45:21.053Z,27.50
2019-04-23T15:48:00.494Z,27.10
2019-04-23T15:50:27.878Z,27.10
2019-04-23T15:52:56.603Z,27.20
2019-04-23T15:55:27.605Z,27.20
2019-04-23T16:00:30.947Z,27.20
2019-04-23T16:02:38.300Z,27.30
2019-04-23T16:05:10.054Z,27.20
2019-04-23T16:07:58.025Z,27.30
2019-04-23T16:10:52.351Z,27.30
2019-04-23T16:13:18.428Z,27.30
2019-04-23T16:18:35.248Z,27.30
2019-04-23T16:21:02.048Z,27.30
2019-04-23T16:23:27.789Z,27.30
2019-04-23T16:26:12.301Z,27.30
2019-04-23T16:28:42.186Z,27.40
2019-04-23T16:31:12.963Z,27.30
2019-04-23T16:33:48.878Z,27.40
2019-04-23T16:36:24.931Z,27.50
2019-04-23T16:38:52.046Z,27.40
2019-04-23T16:41:25.918Z,27.50
2019-04-23T16:43:59.843Z,27.50
2019-04-23T16:46:28.558Z,27.40
2019-04-23T16:49:10.147Z,27.50
2019-04-23T16:51:37.503Z,27.40
2019-04-23T16:54:01.110Z,27.50
2019-04-23T16:56:55.502Z,27.50
2019-04-23T16:59:18.194Z,27.50
2019-04-23T17:01:35.214Z,27.50
2019-04-23T17:09:21.396Z,27.60
2019-04-23T17:11:44.503Z,27.60
2019-04-23T17:14:18.747Z,27.50
2019-04-23T17:16:45.982Z,27.60
2019-04-23T17:19:22.734Z,27.60
2019-04-23T17:21:55.225Z,27.70
2019-04-23T17:26:54.249Z,27.60
2019-04-23T17:29:28.651Z,27.60
2019-04-23T17:32:05.553Z,27.70
2019-04-23T17:37:21.725Z,27.70
2019-04-23T17:40:03.780Z,27.60
2019-04-23T17:42:39.347Z,27.70
2019-04-23T17:47:59.273Z,27.70
2019-04-23T17:50:43.962Z,27.70
2019-04-23T17:55:57.653Z,27.70
2019-04-23T17:58:23.378Z,27.70
2019-04-23T18:01:07.223Z,27.80
2019-04-23T18:03:27.178Z,27.80
2019-04-23T18:08:29.052Z,27.80
2019-04-23T18:11:12.997Z,27.80
2019-04-23T18:13:34.791Z,27.80
2019-04-23T18:16:08.376Z,27.80
2019-04-23T18:21:32.879Z,27.80
2019-04-23T18:24:19.871Z,27.90
2019-04-23T18:26:46.090Z,27.90
2019-04-23T18:32:07.899Z,27.90
2019-04-23T18:34:45.407Z,27.90
2019-04-23T18:37:10.760Z,27.90
2019-04-23T18:39:42.120Z,27.90
2019-04-23T18:42:18.255Z,27.90
2019-04-23T18:44:43.424Z,27.90
2019-04-23T18:47:15.482Z,27.90
2019-04-23T18:52:27.662Z,28.00
2019-04-23T18:55:04.097Z,28.00
2019-04-23T18:59:50.888Z,28.00
2019-04-23T19:10:50.648Z,28.10
2019-04-23T19:13:24.781Z,28.10
2019-04-23T19:15:50.988Z,28.10
2019-04-23T19:18:37.533Z,28.10
2019-04-23T19:23:40.621Z,28.20
2019-04-23T19:26:09.607Z,28.20
2019-04-23T19:28:47.653Z,28.20
2019-04-23T19:31:45.588Z,28.20
2019-04-23T19:34:24.546Z,28.20
2019-04-23T19:39:17.779Z,28.20
2019-04-23T19:41:55.439Z,28.20
2019-04-23T19:44:34.561Z,28.20
2019-04-23T19:46:58.237Z,28.20
2019-04-23T19:51:56.449Z,28.20
2019-04-23T19:54:47.767Z,28.20
2019-04-23T19:56:58.197Z,28.20
2019-04-23T19:59:37.768Z,28.20
2019-04-23T20:02:00.516Z,28.20
2019-04-23T20:04:39.224Z,28.20
2019-04-23T20:09:44.366Z,28.20
2019-04-23T20:12:06.467Z,28.30
2019-04-23T20:14:47.685Z,28.20
2019-04-23T20:19:54.557Z,28.20
2019-04-23T20:24:57.665Z,28.20
2019-04-23T20:30:14.723Z,28.20
2019-04-23T20:32:12.725Z,28.30
2019-04-23T20:33:34.999Z,28.30
2019-04-23T20:35:21.989Z,28.30
2019-04-23T20:38:22.214Z,28.30
2019-04-23T20:40:34.503Z,28.20
2019-04-23T20:42:53.011Z,28.20
2019-04-23T20:45:27.352Z,28.20
2019-04-23T20:47:58.085Z,28.20
2019-04-23T20:50:26.229Z,28.30
2019-04-23T20:52:59.864Z,28.30
2019-04-23T20:55:58.414Z,28.30
2019-04-23T20:58:47.934Z,28.20
2019-04-23T21:01:09.279Z,28.30
2019-04-23T21:06:06.268Z,28.30
2019-04-23T21:09:10.177Z,28.30
2019-04-23T21:11:05.298Z,28.20
2019-04-23T21:13:55.073Z,28.30
2019-04-23T21:16:15.387Z,28.30
2019-04-23T21:18:44.241Z,28.30
2019-04-23T21:21:18.282Z,28.30
2019-04-23T21:23:50.143Z,28.30
2019-04-23T21:26:08.308Z,28.30
2019-04-23T21:28:54.237Z,28.30
2019-04-23T21:31:22.789Z,28.30
2019-04-23T21:34:06.137Z,28.30
2019-04-23T21:36:40.182Z,28.30
2019-04-23T21:39:27.133Z,28.30
2019-04-23T21:42:07.225Z,28.30
2019-04-23T21:44:32.770Z,28.30
2019-04-23T21:47:25.781Z,28.30
2019-04-23T21:52:11.414Z,28.40
2019-04-23T21:54:51.610Z,28.40
2019-04-23T21:57:14.715Z,28.40
2019-04-23T21:59:50.823Z,28.50
2019-04-23T22:02:21.956Z,28.60
2019-04-23T22:04:52.047Z,28.60
2019-04-23T22:07:29.473Z,28.50
2019-04-23T22:09:59.209Z,28.60
2019-04-23T22:12:23.249Z,28.60
2019-04-23T22:14:55.387Z,28.60
2019-04-23T22:17:33.055Z,28.70
2019-04-23T22:22:44.203Z,28.70
2019-04-23T22:25:31.932Z,28.80
2019-04-23T22:27:41.207Z,28.80
2019-04-23T22:30:02.908Z,28.80
2019-04-23T22:32:52.152Z,28.80
2019-04-23T22:35:10.710Z,28.90
2019-04-23T22:37:56.816Z,28.80
2019-04-23T22:40:10.146Z,28.90
2019-04-23T22:45:21.102Z,28.90
2019-04-23T22:47:58.468Z,28.90
2019-04-23T22:53:08.726Z,29.00
2019-04-23T22:55:28.065Z,29.10
2019-04-23T23:00:24.935Z,29.10
2019-04-23T23:06:04.329Z,29.20
2019-04-23T23:08:17.440Z,29.20
2019-04-23T23:10:50.685Z,29.30
2019-04-23T23:13:18.533Z,29.30
2019-04-23T23:15:59.581Z,29.40
2019-04-23T23:20:59.584Z,29.40
2019-04-23T23:23:30.093Z,29.50
2019-04-23T23:26:02.848Z,29.90
2019-04-23T23:36:23.289Z,29.60
2019-04-23T23:41:28.698Z,29.70
2019-04-23T23:46:22.209Z,29.90
2019-04-23T23:48:48.391Z,29.80
2019-04-23T23:53:58.600Z,30.00
2019-04-23T23:58:58.621Z,30.00
